Hunter Army Air Field
KSVN : rendu visible

Aérodrome :











RETROUVEZ-NOUS SUR...

 
LOGIN :

S'inscrire | Disclaimer

   EN    FR    IT 

 









Légende :    VFR   VFR Marginal   IFR   IFR Intensif   IFR Très Intensif
Visi : 
Plafond : 
>= 8 km
>= 3000ft
5 à 8 km
1000 à 3000 ft
1500m à 5 km
500 à 1000 ft
800 à 1500m
200 à 500 ft
< 800m
< 200 ft
Symboles :   Orages  Brouillard  Fortes neiges  Fortes précipitations  Vent > 20 kt






- Altitude de l'aérodrome : 41 ft


KSVN - Hunter Army Air Field

DERNIER METAR :
  • 120156Z AUTO 04010KT 10SM BKN140 BKN170 11/00 A3043 RMK AO2 SLPNO T01100004 $

METARs EXPIRÉS :
  • 120056Z AUTO 01014G18KT 10SM SCT070 OVC130 12/06 A3042 RMK AO2 RAE07 SLPNO P0000 T01160055 $
  • 120007Z AUTO 01007G18KT 10SM FEW060 BKN095 BKN120 12/06 A3041 RMK AO2 RAE07 PRESRR SLPNO $
  • 112356Z AUTO 02013G17KT 10SM -RA FEW060 OVC100 13/05 A3038 RMK AO2 RAB50 SLPNO P0000 60000 T01270054 10177 20127 50015 $

TAF TAF KSVN
Valide du 11 à 21h jusqu'au 13 à 03h UTC


112100Z 1121/1303 01010G15KT 9999 SCT050 QNH3030INS
BECMG 1202/1203 03012KT 9999 FEW085 QNH3044INS
BECMG 1214/1215 05015G25KT 9999 SCT030 BKN065 QNH3044INS
BECMG 1220/1221 05015G20KT 9999 BKN025 QNH3037INS
BECMG 1302/1303 05012G18KT 9999 OVC020 520352 QNH3035INS TX18/1122Z TN06/1211Z



MET'MAP, la Météo Aéronautique d'un coup d'oeil ! - Copyright ORBIFLY Décembre 2007 - Disclaimer

ORBIFLY MET'MAP TEAM :

Programmation & Développement : Alexandra Zaïnal
Sur une idée originale de : Baudouin d'Aumeries
Assistance à la programmation : Marc-Olivier Méhu
Soutien technique & logistique : Manuel Goepfert

Contact : metmap@orbifly.com




SOURCES & CREDITS :

   NOAA       Earth
Advisory